Time;durP1;ratioP1;P1;durP2;ratioP2;P2;SDS_P1;SDS_P2;PMS_P1;PMS_P2;Temp;Humidity;BMP_temperature;BMP_pressure;BME280_temperature;BME280_humidity;BME280_pressure;Samples;Min_cycle;Max_cycle;Signal;HPM_P1;HPM_P2
2024/02/18 00:00:04;;;;;;;11.87;7.43;;;6.60;99.90;;;;;;4995119;28;20224;-79
2024/02/18 00:02:32;;;;;;;11.37;7.03;;;6.60;99.90;;;;;;4991898;28;20205;-77
2024/02/18 00:04:59;;;;;;;9.93;7.43;;;6.70;99.90;;;;;;4999249;28;20221;-77
2024/02/18 00:07:26;;;;;;;9.33;6.60;;;6.90;99.90;;;;;;5001329;28;20299;-79
2024/02/18 00:09:53;;;;;;;10.10;7.50;;;6.60;99.90;;;;;;4996431;28;20697;-78
2024/02/18 00:12:22;;;;;;;9.50;6.87;;;6.60;99.90;;;;;;4994298;28;20202;-78
2024/02/18 00:14:49;;;;;;;9.73;6.70;;;6.60;99.90;;;;;;4989265;28;20212;-80
2024/02/18 00:17:17;;;;;;;10.87;7.27;;;6.50;99.90;;;;;;4993912;28;20301;-79
2024/02/18 00:19:44;;;;;;;12.77;7.53;;;6.50;99.90;;;;;;4996281;28;20232;-81
2024/02/18 00:22:11;;;;;;;9.63;7.07;;;6.50;99.90;;;;;;4997044;28;20216;-80
2024/02/18 00:24:38;;;;;;;11.57;7.87;;;6.50;99.90;;;;;;4997475;28;20586;-80
2024/02/18 00:27:05;;;;;;;12.37;7.50;;;6.50;99.90;;;;;;4996823;28;20577;-80
2024/02/18 00:29:32;;;;;;;9.87;6.80;;;6.40;99.90;;;;;;4997099;28;20296;-79
2024/02/18 00:31:59;;;;;;;11.47;7.23;;;6.30;99.90;;;;;;4996277;28;20292;-79
2024/02/18 00:34:28;;;;;;;10.80;7.57;;;6.30;99.90;;;;;;4994526;28;20272;-80
2024/02/18 00:36:55;;;;;;;9.47;6.90;;;6.30;99.90;;;;;;4997206;28;20201;-79
2024/02/18 00:39:22;;;;;;;8.60;5.97;;;6.20;99.90;;;;;;4996826;28;20221;-79
2024/02/18 00:41:49;;;;;;;9.50;6.37;;;6.20;99.90;;;;;;4992872;28;20208;-79
2024/02/18 00:44:17;;;;;;;11.60;6.40;;;6.20;99.90;;;;;;4992065;28;20316;-80
2024/02/18 00:46:43;;;;;;;11.30;6.67;;;6.20;99.90;;;;;;4988121;28;20263;-80
2024/02/18 00:49:10;;;;;;;12.80;7.27;;;6.10;99.90;;;;;;4993813;28;20220;-79
2024/02/18 00:51:38;;;;;;;9.63;6.77;;;6.10;99.90;;;;;;4990925;28;20228;-80
2024/02/18 00:54:05;;;;;;;11.40;7.53;;;6.10;99.90;;;;;;4997544;28;20703;-79
2024/02/18 00:56:32;;;;;;;13.50;7.70;;;6.00;99.90;;;;;;4994124;28;20663;-78
2024/02/18 00:58:59;;;;;;;12.40;8.10;;;6.30;99.90;;;;;;4994284;28;20305;-79
2024/02/18 01:01:26;;;;;;;11.93;7.20;;;6.10;99.90;;;;;;4995457;28;20215;-79
2024/02/18 01:03:52;;;;;;;12.60;7.50;;;5.90;99.90;;;;;;4989583;28;20208;-80
2024/02/18 01:06:19;;;;;;;12.43;7.93;;;6.00;99.90;;;;;;4998358;28;20197;-80
2024/02/18 01:08:47;;;;;;;12.30;7.47;;;6.00;99.90;;;;;;5000510;28;20324;-80
2024/02/18 01:11:14;;;;;;;11.13;7.27;;;6.00;99.90;;;;;;4989122;28;20207;-80
2024/02/18 01:13:41;;;;;;;13.30;7.77;;;6.00;99.90;;;;;;4999335;28;20268;-80
2024/02/18 01:16:08;;;;;;;15.07;7.93;;;6.00;99.90;;;;;;5001990;28;20237;-79
2024/02/18 01:18:40;;;;;;;11.87;7.63;;;5.90;99.90;;;;;;4993485;28;20225;-79
2024/02/18 01:21:06;;;;;;;11.57;7.00;;;5.70;99.90;;;;;;4989737;28;20205;-79
2024/02/18 01:23:33;;;;;;;12.67;7.27;;;5.60;99.90;;;;;;4992720;28;20312;-78
2024/02/18 01:26:01;;;;;;;13.60;7.70;;;5.60;99.90;;;;;;4994547;28;20224;-80
2024/02/18 01:28:28;;;;;;;13.23;7.03;;;5.60;99.90;;;;;;4992617;28;20225;-80
2024/02/18 01:30:56;;;;;;;12.40;6.50;;;5.50;99.90;;;;;;4995632;28;20224;-79
2024/02/18 01:33:23;;;;;;;10.23;6.57;;;5.50;99.90;;;;;;4996320;28;20227;-79
2024/02/18 01:35:50;;;;;;;11.67;7.07;;;5.40;99.90;;;;;;4996219;28;20200;-79
2024/02/18 01:38:17;;;;;;;11.87;7.10;;;5.40;99.90;;;;;;4991592;28;20224;-80
2024/02/18 01:40:44;;;;;;;13.43;7.70;;;5.30;99.90;;;;;;4990134;28;20205;-79
2024/02/18 01:43:13;;;;;;;16.17;7.63;;;5.40;99.90;;;;;;4995425;28;20686;-78
2024/02/18 01:45:39;;;;;;;15.73;7.90;;;5.40;99.90;;;;;;4993032;28;20717;-79
2024/02/18 01:48:07;;;;;;;10.93;6.77;;;5.10;99.90;;;;;;4993927;28;20228;-79
2024/02/18 01:50:34;;;;;;;9.77;6.90;;;5.10;99.90;;;;;;4996125;28;20291;-79
2024/02/18 01:53:00;;;;;;;13.13;7.90;;;5.10;99.90;;;;;;5001153;28;20292;-80
2024/02/18 01:55:27;;;;;;;11.03;7.00;;;5.10;99.90;;;;;;5000301;28;20197;-79
2024/02/18 01:57:54;;;;;;;12.53;7.33;;;4.90;99.90;;;;;;5001748;28;20209;-79
2024/02/18 02:00:23;;;;;;;9.73;6.67;;;4.90;99.90;;;;;;4993271;28;20212;-80
2024/02/18 02:02:50;;;;;;;12.47;7.40;;;4.80;99.90;;;;;;4995370;28;20631;-79
2024/02/18 02:05:20;;;;;;;11.93;7.37;;;4.70;99.90;;;;;;5004195;28;20315;-79
2024/02/18 02:07:49;;;;;;;12.00;7.10;;;4.70;99.90;;;;;;5002738;28;20213;-79
2024/02/18 02:10:16;;;;;;;10.93;6.90;;;4.80;99.90;;;;;;4995057;28;20208;-79
2024/02/18 02:12:43;;;;;;;12.47;7.27;;;4.60;99.90;;;;;;4992017;28;20216;-79
2024/02/18 02:15:11;;;;;;;13.73;6.77;;;4.60;99.90;;;;;;4992549;28;20226;-78
2024/02/18 02:17:39;;;;;;;11.73;7.10;;;4.60;99.90;;;;;;4997807;28;20232;-79
2024/02/18 02:20:09;;;;;;;12.53;7.73;;;4.50;99.90;;;;;;4994953;28;20204;-79
2024/02/18 02:22:35;;;;;;;12.60;7.33;;;4.40;99.90;;;;;;5000095;28;20205;-79
2024/02/18 02:25:03;;;;;;;13.53;7.70;;;4.30;99.90;;;;;;4998778;28;20680;-77
2024/02/18 02:27:34;;;;;;;10.77;6.87;;;4.20;99.90;;;;;;4999710;28;20201;-78
2024/02/18 02:30:03;;;;;;;16.87;7.80;;;4.10;99.90;;;;;;4994109;28;20231;-78
2024/02/18 02:32:31;;;;;;;12.03;6.93;;;4.20;99.90;;;;;;4990670;28;20680;-79
2024/02/18 02:34:58;;;;;;;12.87;6.83;;;4.20;99.90;;;;;;4997065;28;20252;-78
2024/02/18 02:37:25;;;;;;;11.43;6.90;;;3.90;99.90;;;;;;4994656;28;20217;-78
2024/02/18 02:39:52;;;;;;;15.57;7.57;;;4.00;99.90;;;;;;4994435;28;20269;-78
2024/02/18 02:42:19;;;;;;;9.93;6.70;;;4.00;99.90;;;;;;5001660;28;20201;-79
2024/02/18 02:44:45;;;;;;;13.90;7.40;;;4.00;99.90;;;;;;4999024;28;20222;-79
2024/02/18 02:47:14;;;;;;;13.50;7.83;;;4.00;99.90;;;;;;4991260;28;20209;-77
2024/02/18 02:49:40;;;;;;;15.17;8.93;;;4.10;99.90;;;;;;4985210;28;20221;-79
2024/02/18 02:52:07;;;;;;;14.73;7.90;;;4.00;99.90;;;;;;4996826;28;20700;-78
2024/02/18 02:54:35;;;;;;;13.73;7.73;;;4.00;99.90;;;;;;4997450;28;20205;-78
2024/02/18 02:57:02;;;;;;;14.83;8.43;;;4.00;99.90;;;;;;4992752;28;20197;-78
2024/02/18 02:59:29;;;;;;;16.37;7.97;;;3.90;99.90;;;;;;4993849;28;20222;-78
2024/02/18 03:01:56;;;;;;;13.67;7.77;;;4.00;99.90;;;;;;4996597;28;20817;-77
2024/02/18 03:04:24;;;;;;;14.57;8.40;;;4.00;99.90;;;;;;4998334;28;20585;-79
2024/02/18 03:06:50;;;;;;;14.60;8.27;;;4.00;99.90;;;;;;4995952;28;20575;-78
2024/02/18 03:09:18;;;;;;;14.87;8.33;;;3.80;99.90;;;;;;4992555;28;20225;-81
2024/02/18 03:11:45;;;;;;;13.60;8.00;;;3.90;99.90;;;;;;4997502;28;20229;-78
2024/02/18 03:14:12;;;;;;;13.07;7.87;;;4.00;99.90;;;;;;4995182;28;20761;-78
2024/02/18 03:16:39;;;;;;;15.30;7.87;;;4.00;99.90;;;;;;4989926;28;20212;-80
2024/02/18 03:19:05;;;;;;;14.97;8.03;;;4.00;99.90;;;;;;4994808;28;20216;-80
2024/02/18 03:21:34;;;;;;;13.23;7.30;;;4.10;99.90;;;;;;4993350;28;20207;-78
2024/02/18 03:24:00;;;;;;;10.83;6.57;;;3.90;99.90;;;;;;4995501;28;20587;-79
2024/02/18 03:26:27;;;;;;;14.00;7.57;;;3.70;99.90;;;;;;5002132;28;20241;-77
2024/02/18 03:28:54;;;;;;;17.57;8.73;;;3.80;99.90;;;;;;4998442;28;20229;-78
2024/02/18 03:31:21;;;;;;;18.13;9.33;;;4.00;99.90;;;;;;4992351;28;20198;-78
2024/02/18 03:33:48;;;;;;;15.53;8.50;;;4.20;99.90;;;;;;5002954;28;20201;-78
2024/02/18 03:36:15;;;;;;;16.57;8.83;;;3.90;99.90;;;;;;4999275;28;20216;-78
2024/02/18 03:38:43;;;;;;;20.93;9.83;;;4.00;99.90;;;;;;4988781;28;20236;-81
2024/02/18 03:41:10;;;;;;;19.13;9.93;;;3.90;99.90;;;;;;4991976;28;20200;-80
2024/02/18 03:43:37;;;;;;;16.03;8.90;;;3.90;99.90;;;;;;4998538;28;20928;-80
2024/02/18 03:46:04;;;;;;;16.77;9.37;;;3.90;99.90;;;;;;4995165;28;20703;-79
2024/02/18 03:48:30;;;;;;;16.00;8.70;;;3.70;99.90;;;;;;4989899;28;20248;-79
2024/02/18 03:50:57;;;;;;;15.43;8.70;;;3.70;99.90;;;;;;4993953;28;20206;-80
2024/02/18 03:53:24;;;;;;;19.73;9.50;;;3.90;99.90;;;;;;4983804;28;20201;-81
2024/02/18 03:55:52;;;;;;;21.10;10.77;;;3.90;99.90;;;;;;4992384;28;20213;-81
2024/02/18 03:58:19;;;;;;;17.87;10.00;;;4.00;99.90;;;;;;4995305;28;20315;-80
2024/02/18 04:00:46;;;;;;;20.63;9.73;;;4.10;99.90;;;;;;5001279;28;20655;-80
2024/02/18 04:03:14;;;;;;;18.70;9.87;;;4.20;99.90;;;;;;4995943;28;20564;-79
2024/02/18 04:05:41;;;;;;;19.83;10.20;;;4.20;99.90;;;;;;4997850;28;20223;-80
2024/02/18 04:08:07;;;;;;;22.40;11.43;;;4.20;99.90;;;;;;4997626;28;20228;-80
2024/02/18 04:10:34;;;;;;;23.17;11.07;;;4.20;99.90;;;;;;4997422;28;20215;-79
2024/02/18 04:13:02;;;;;;;23.23;10.93;;;4.30;99.90;;;;;;4993138;28;20202;-80
2024/02/18 04:15:29;;;;;;;24.67;11.33;;;4.40;99.90;;;;;;4994079;28;20292;-80
2024/02/18 04:17:56;;;;;;;22.33;10.53;;;4.40;99.90;;;;;;4991330;28;20215;-80
2024/02/18 04:20:23;;;;;;;24.13;10.57;;;4.40;99.90;;;;;;4991129;28;20197;-80
2024/02/18 04:22:50;;;;;;;24.27;11.80;;;4.50;99.90;;;;;;4995953;28;20223;-79
2024/02/18 04:25:17;;;;;;;22.87;11.83;;;4.50;99.90;;;;;;4991868;28;20224;-81
2024/02/18 04:27:44;;;;;;;28.30;14.13;;;4.60;99.90;;;;;;4992998;28;20573;-80
2024/02/18 04:30:13;;;;;;;25.13;12.07;;;4.70;99.90;;;;;;4995284;28;20577;-80
2024/02/18 04:32:39;;;;;;;22.60;11.73;;;4.50;99.90;;;;;;4994047;28;20651;-80
2024/02/18 04:35:06;;;;;;;25.10;11.57;;;4.40;99.90;;;;;;4997097;28;20209;-80
2024/02/18 04:37:33;;;;;;;23.03;11.73;;;4.50;99.90;;;;;;4995818;28;20212;-81
2024/02/18 04:40:00;;;;;;;24.83;13.10;;;4.40;99.90;;;;;;4995141;28;20227;-79
2024/02/18 04:42:27;;;;;;;25.50;13.33;;;4.50;99.90;;;;;;4994182;28;20204;-80
2024/02/18 04:44:53;;;;;;;22.73;11.13;;;4.40;99.90;;;;;;4995612;28;20205;-80
2024/02/18 04:47:22;;;;;;;22.37;10.57;;;4.30;99.90;;;;;;4990764;28;20205;-80
2024/02/18 04:49:49;;;;;;;24.57;12.33;;;4.30;99.90;;;;;;4997054;28;20340;-80
2024/02/18 04:52:16;;;;;;;24.97;11.77;;;4.50;99.90;;;;;;4996300;28;20220;-79
2024/02/18 04:54:42;;;;;;;25.70;12.27;;;4.50;99.90;;;;;;4989227;28;20205;-80
2024/02/18 04:57:09;;;;;;;22.30;11.20;;;4.40;99.90;;;;;;4991810;28;20194;-80
2024/02/18 04:59:36;;;;;;;27.50;13.37;;;4.30;99.90;;;;;;4994216;28;20225;-79
2024/02/18 05:02:03;;;;;;;26.23;12.83;;;4.40;99.90;;;;;;4991127;28;20200;-81
2024/02/18 05:04:31;;;;;;;31.30;14.73;;;4.70;99.90;;;;;;4997828;28;20228;-80
2024/02/18 05:06:59;;;;;;;27.23;13.57;;;4.50;99.90;;;;;;4996870;28;20235;-80
2024/02/18 05:09:25;;;;;;;26.13;13.03;;;4.60;99.90;;;;;;4998127;28;20233;-81
2024/02/18 05:11:52;;;;;;;28.83;13.93;;;4.50;99.90;;;;;;4987864;28;20204;-80
2024/02/18 05:14:19;;;;;;;28.83;14.87;;;4.70;99.90;;;;;;4994635;28;20224;-80
2024/02/18 05:16:46;;;;;;;28.70;13.53;;;4.70;99.90;;;;;;4990931;28;20255;-80
2024/02/18 05:19:14;;;;;;;28.03;14.13;;;4.70;99.90;;;;;;4992751;28;20221;-80
2024/02/18 05:21:42;;;;;;;29.40;15.17;;;4.70;99.90;;;;;;4988942;28;20613;-80
2024/02/18 05:24:09;;;;;;;30.10;14.43;;;4.70;99.90;;;;;;4987590;28;20707;-80
2024/02/18 05:26:36;;;;;;;32.60;14.60;;;4.70;99.90;;;;;;4993210;28;20279;-80
2024/02/18 05:29:03;;;;;;;26.43;14.13;;;4.60;99.90;;;;;;4998784;28;20225;-81
2024/02/18 05:31:30;;;;;;;29.13;14.23;;;4.50;99.90;;;;;;4986002;28;20572;-79
2024/02/18 05:33:57;;;;;;;27.20;14.47;;;4.60;99.90;;;;;;4990549;28;20603;-77
2024/02/18 05:36:24;;;;;;;28.63;14.90;;;4.60;99.90;;;;;;4996930;28;20216;-79
2024/02/18 05:38:52;;;;;;;29.63;15.10;;;4.60;99.90;;;;;;4991641;28;20308;-76
2024/02/18 05:41:19;;;;;;;28.67;14.13;;;4.70;99.90;;;;;;4997256;28;20216;-80
2024/02/18 05:43:46;;;;;;;30.67;16.27;;;4.90;99.90;;;;;;4990304;28;20672;-80
2024/02/18 05:46:13;;;;;;;29.80;15.17;;;5.00;99.90;;;;;;4998796;28;20548;-80
2024/02/18 05:48:40;;;;;;;31.40;14.83;;;5.00;99.90;;;;;;4998488;28;20228;-78
2024/02/18 05:51:07;;;;;;;27.83;14.37;;;5.00;99.90;;;;;;5000777;28;20201;-80
2024/02/18 05:53:35;;;;;;;25.60;13.93;;;4.90;99.90;;;;;;4994310;28;20205;-80
2024/02/18 05:56:03;;;;;;;30.67;15.20;;;4.90;99.90;;;;;;4991930;28;20664;-79
2024/02/18 05:58:30;;;;;;;30.70;15.07;;;4.90;99.90;;;;;;4998808;28;20221;-80
2024/02/18 06:00:56;;;;;;;25.60;13.23;;;5.00;99.90;;;;;;4990222;28;20658;-80
2024/02/18 06:03:23;;;;;;;30.07;14.80;;;5.10;99.90;;;;;;4998756;28;20224;-81
2024/02/18 06:05:50;;;;;;;31.13;15.03;;;5.10;99.90;;;;;;4999828;28;20680;-80
2024/02/18 06:08:17;;;;;;;28.47;15.63;;;5.30;99.90;;;;;;4994577;28;20687;-80
2024/02/18 06:10:43;;;;;;;28.43;14.33;;;5.30;99.90;;;;;;4993144;28;20210;-80
2024/02/18 06:13:11;;;;;;;29.53;15.00;;;5.30;99.90;;;;;;4999544;28;20203;-80
2024/02/18 06:15:38;;;;;;;30.20;16.00;;;5.30;99.90;;;;;;5000993;28;20204;-80
2024/02/18 06:18:05;;;;;;;27.27;15.23;;;5.40;99.90;;;;;;4992709;28;20228;-80
2024/02/18 06:20:32;;;;;;;26.93;14.60;;;5.50;99.90;;;;;;4994015;28;20228;-80
2024/02/18 06:22:59;;;;;;;31.20;16.30;;;5.50;99.90;;;;;;4995491;28;20213;-80
2024/02/18 06:25:26;;;;;;;50.27;27.70;;;5.50;99.90;;;;;;4994957;28;20209;-81
2024/02/18 06:27:53;;;;;;;35.60;19.07;;;5.60;99.90;;;;;;4997737;28;20213;-81
2024/02/18 06:30:21;;;;;;;30.00;14.80;;;5.60;99.90;;;;;;4987385;28;20201;-81
2024/02/18 06:32:48;;;;;;;30.83;15.90;;;5.60;99.90;;;;;;4987479;28;20684;-79
2024/02/18 06:35:15;;;;;;;30.90;15.73;;;5.80;99.90;;;;;;4992520;28;20217;-79
2024/02/18 06:37:42;;;;;;;30.47;16.03;;;5.80;99.90;;;;;;4984955;28;20201;-79
2024/02/18 06:40:10;;;;;;;29.93;15.83;;;5.80;99.90;;;;;;4989745;28;20252;-79
2024/02/18 06:42:37;;;;;;;30.53;14.80;;;5.90;99.90;;;;;;4991483;28;20206;-80
2024/02/18 06:45:05;;;;;;;30.27;14.57;;;5.80;99.90;;;;;;4989638;28;20212;-80
2024/02/18 06:47:33;;;;;;;27.80;14.20;;;5.90;99.90;;;;;;4990156;28;20370;-79
2024/02/18 06:50:00;;;;;;;28.00;14.57;;;5.80;99.90;;;;;;4983646;28;20451;-80
2024/02/18 06:52:27;;;;;;;26.97;14.30;;;5.90;99.90;;;;;;4992049;28;20295;-79
2024/02/18 06:54:54;;;;;;;30.10;15.77;;;6.10;99.90;;;;;;4987396;28;20638;-79
2024/02/18 06:57:20;;;;;;;26.20;14.70;;;6.10;99.90;;;;;;4993660;28;20652;-79
2024/02/18 06:59:47;;;;;;;24.70;13.23;;;6.10;99.90;;;;;;4991832;28;20229;-78
2024/02/18 07:02:14;;;;;;;29.13;13.90;;;6.10;99.90;;;;;;4985610;28;20583;-78
2024/02/18 07:04:42;;;;;;;27.27;14.47;;;6.10;99.90;;;;;;4989688;28;20595;-80
2024/02/18 07:07:09;;;;;;;25.60;14.23;;;6.10;99.90;;;;;;4984815;28;20229;-79
2024/02/18 07:09:36;;;;;;;27.20;15.33;;;6.20;99.90;;;;;;4994121;28;20662;-79
2024/02/18 07:12:04;;;;;;;25.93;14.00;;;6.20;99.90;;;;;;4988803;28;20233;-79
2024/02/18 07:14:31;;;;;;;29.73;18.07;;;6.30;99.90;;;;;;4994421;28;20201;-80
2024/02/18 07:16:57;;;;;;;28.73;16.07;;;6.40;99.90;;;;;;4988605;28;20205;-80
2024/02/18 07:19:25;;;;;;;28.30;15.40;;;6.40;99.90;;;;;;4996657;28;20217;-78
2024/02/18 07:21:53;;;;;;;28.03;15.27;;;6.40;99.90;;;;;;4989648;28;20229;-79
2024/02/18 07:24:20;;;;;;;26.17;15.33;;;6.30;99.90;;;;;;4993461;28;20224;-80
2024/02/18 07:26:47;;;;;;;25.50;14.03;;;6.40;99.90;;;;;;4991523;28;20794;-80
2024/02/18 07:29:14;;;;;;;24.33;13.63;;;6.50;99.90;;;;;;4994551;28;20235;-78
2024/02/18 07:31:40;;;;;;;24.70;13.47;;;6.60;99.90;;;;;;4992496;28;20215;-80
2024/02/18 07:34:07;;;;;;;25.03;13.93;;;6.70;99.90;;;;;;4996019;28;20212;-79
2024/02/18 07:36:34;;;;;;;25.63;14.70;;;6.80;99.90;;;;;;4991539;28;20292;-80
2024/02/18 07:39:03;;;;;;;23.23;13.23;;;6.90;99.90;;;;;;4986838;28;20599;-79
2024/02/18 07:41:30;;;;;;;22.60;12.80;;;7.10;99.90;;;;;;4986890;28;20593;-79
2024/02/18 07:43:57;;;;;;;22.77;13.47;;;7.20;99.90;;;;;;4991204;28;20852;-79
2024/02/18 07:46:23;;;;;;;21.87;12.10;;;7.40;99.90;;;;;;4990010;28;20249;-78
2024/02/18 07:48:50;;;;;;;23.47;11.97;;;7.60;99.90;;;;;;4993746;28;20221;-79
2024/02/18 07:51:17;;;;;;;21.47;12.27;;;7.80;99.90;;;;;;4993567;28;20213;-79
2024/02/18 07:53:44;;;;;;;18.80;11.67;;;7.90;99.90;;;;;;4995523;28;20209;-79
2024/02/18 07:56:12;;;;;;;20.80;11.83;;;8.00;99.90;;;;;;4982542;28;20205;-79
2024/02/18 07:58:39;;;;;;;21.17;11.13;;;8.10;99.90;;;;;;4995904;28;20700;-78
2024/02/18 08:01:06;;;;;;;19.50;11.30;;;8.20;99.90;;;;;;4989085;28;20708;-79
2024/02/18 08:03:32;;;;;;;17.60;10.40;;;8.30;99.90;;;;;;4993113;28;20209;-82
2024/02/18 08:05:59;;;;;;;19.30;10.80;;;8.50;99.90;;;;;;4990803;28;20209;-80
2024/02/18 08:08:26;;;;;;;19.50;10.50;;;8.60;99.90;;;;;;4993559;28;20224;-80
2024/02/18 08:10:53;;;;;;;19.27;9.90;;;8.70;99.90;;;;;;4993295;28;20201;-79
2024/02/18 08:13:21;;;;;;;18.20;10.20;;;8.80;99.90;;;;;;4989825;28;20216;-79
2024/02/18 08:15:48;;;;;;;16.37;9.80;;;8.90;99.90;;;;;;4986100;28;20268;-79
2024/02/18 08:18:15;;;;;;;16.77;8.83;;;9.00;99.90;;;;;;4987495;28;20229;-78
2024/02/18 08:20:43;;;;;;;16.97;9.40;;;9.10;99.90;;;;;;4987718;28;20210;-78
2024/02/18 08:23:10;;;;;;;16.87;10.27;;;9.30;99.90;;;;;;4991185;28;20215;-81
2024/02/18 08:25:36;;;;;;;17.20;9.23;;;9.40;99.90;;;;;;4981659;28;20206;-81
2024/02/18 08:28:04;;;;;;;14.87;8.93;;;9.40;99.90;;;;;;4995986;28;20225;-78
2024/02/18 08:30:32;;;;;;;18.07;9.20;;;9.50;99.90;;;;;;4989418;28;20233;-79
2024/02/18 08:32:59;;;;;;;15.00;8.97;;;9.60;99.90;;;;;;4986420;28;20203;-79
2024/02/18 08:35:26;;;;;;;20.57;11.53;;;9.80;99.90;;;;;;4992245;28;20243;-79
2024/02/18 08:37:53;;;;;;;15.03;9.70;;;9.90;99.90;;;;;;4987937;28;20208;-79
2024/02/18 08:40:20;;;;;;;16.20;8.93;;;10.00;99.90;;;;;;4994065;28;20272;-80
2024/02/18 08:42:46;;;;;;;18.20;9.37;;;10.10;99.90;;;;;;4990016;28;20227;-79
2024/02/18 08:45:13;;;;;;;14.70;8.90;;;10.20;99.90;;;;;;4991321;28;20311;-78
2024/02/18 08:47:41;;;;;;;15.90;9.23;;;10.20;99.90;;;;;;4987347;28;20228;-79
2024/02/18 08:50:10;;;;;;;16.73;9.40;;;10.20;99.90;;;;;;4993345;28;20204;-79
2024/02/18 08:52:37;;;;;;;15.63;8.73;;;10.40;99.90;;;;;;4991044;28;20263;-80
2024/02/18 08:55:04;;;;;;;13.77;8.53;;;10.50;1.00;;;;;;4992274;28;20218;-79
2024/02/18 08:57:31;;;;;;;13.73;8.20;;;10.60;1.00;;;;;;4994006;28;20232;-79
2024/02/18 08:59:58;;;;;;;14.90;7.13;;;10.60;99.90;;;;;;4994209;28;20575;-80
2024/02/18 09:02:25;;;;;;;12.23;6.63;;;10.50;99.90;;;;;;4993028;28;20204;-79
2024/02/18 09:04:53;;;;;;;13.10;7.80;;;10.70;1.00;;;;;;4995375;28;20216;-80
2024/02/18 09:07:20;;;;;;;11.40;6.67;;;10.60;99.90;;;;;;4989835;28;20221;-81
2024/02/18 09:09:47;;;;;;;12.43;7.50;;;10.60;1.00;;;;;;4987821;28;20431;-81
2024/02/18 09:12:14;;;;;;;11.70;6.97;;;10.60;1.00;;;;;;4990049;28;20213;-81
2024/02/18 09:14:40;;;;;;;10.47;6.77;;;10.70;99.90;;;;;;4995629;28;20200;-79
2024/02/18 09:17:07;;;;;;;11.33;6.67;;;10.60;99.20;;;;;;4993307;28;20212;-79
2024/02/18 09:19:34;;;;;;;12.20;7.00;;;10.70;1.00;;;;;;4989291;28;20221;-78
2024/02/18 09:22:03;;;;;;;12.30;6.70;;;10.70;1.00;;;;;;4981376;28;20600;-79
2024/02/18 09:24:30;;;;;;;11.43;6.90;;;10.70;99.90;;;;;;4990799;28;20231;-77
2024/02/18 09:26:57;;;;;;;11.43;7.53;;;10.70;1.00;;;;;;4993391;28;20221;-79
2024/02/18 09:29:27;;;;;;;13.67;7.60;;;10.80;99.90;;;;;;4991306;28;20335;-79
2024/02/18 09:31:54;;;;;;;11.87;7.47;;;10.70;10.20;;;;;;4988391;28;20209;-82
2024/02/18 09:34:21;;;;;;;15.53;8.40;;;10.70;1.00;;;;;;4990359;28;20197;-78
2024/02/18 09:36:47;;;;;;;12.77;7.70;;;10.90;1.00;;;;;;4987787;28;20204;-81
2024/02/18 09:39:15;;;;;;;13.80;8.43;;;10.90;1.00;;;;;;4991203;28;20244;-81
2024/02/18 09:41:46;;;;;;;17.10;9.23;;;11.00;1.00;;;;;;4990915;28;20875;-81
2024/02/18 09:44:15;;;;;;;14.83;8.70;;;10.90;1.00;;;;;;4985974;28;20248;-81
2024/02/18 09:46:43;;;;;;;15.47;8.60;;;11.00;99.90;;;;;;4988865;28;20212;-80
2024/02/18 09:49:12;;;;;;;12.80;7.67;;;11.10;99.90;;;;;;4993305;28;20229;-80
2024/02/18 09:51:39;;;;;;;12.23;7.50;;;11.20;1.00;;;;;;4987132;28;20648;-81
2024/02/18 09:54:08;;;;;;;17.87;8.47;;;11.30;1.00;;;;;;4991308;28;20695;-78
2024/02/18 09:56:37;;;;;;;12.70;7.53;;;11.30;1.00;;;;;;4994137;28;20213;-79
2024/02/18 09:59:03;;;;;;;12.30;7.40;;;11.40;1.00;;;;;;4993864;28;20228;-78
2024/02/18 10:01:32;;;;;;;12.40;7.50;;;11.50;1.00;;;;;;4985065;28;20220;-79
2024/02/18 10:03:59;;;;;;;13.13;8.20;;;11.50;1.00;;;;;;4992195;28;20224;-80
2024/02/18 10:06:26;;;;;;;12.50;7.83;;;11.60;1.00;;;;;;4992900;28;20260;-78
2024/02/18 10:08:54;;;;;;;15.43;8.97;;;11.60;1.00;;;;;;4991897;28;20316;-80
2024/02/18 10:11:22;;;;;;;14.67;9.10;;;11.60;1.00;;;;;;4985794;28;20546;-79
2024/02/18 10:13:51;;;;;;;16.10;8.53;;;11.60;1.00;;;;;;4991601;28;20205;-79
2024/02/18 10:16:18;;;;;;;16.03;8.63;;;11.60;1.00;;;;;;4989347;28;20225;-79
2024/02/18 10:18:46;;;;;;;13.83;7.80;;;11.70;1.00;;;;;;4992529;28;20263;-79
2024/02/18 10:21:14;;;;;;;13.43;7.73;;;11.80;1.00;;;;;;4982550;28;20205;-83
2024/02/18 10:23:41;;;;;;;14.60;8.53;;;11.90;99.90;;;;;;4990100;28;20641;-79
2024/02/18 10:26:08;;;;;;;14.60;8.83;;;12.10;1.00;;;;;;4984432;28;20284;-78
2024/02/18 10:28:36;;;;;;;14.07;8.80;;;12.20;99.90;;;;;;4995532;28;20596;-79
2024/02/18 10:31:07;;;;;;;13.07;8.60;;;12.40;99.90;;;;;;4994829;28;20212;-78
2024/02/18 10:33:34;;;;;;;12.13;7.70;;;12.30;99.90;;;;;;4992763;28;20297;-80
2024/02/18 10:36:08;;;;;;;9.77;6.47;;;12.20;99.90;;;;;;4993919;28;20312;-79
2024/02/18 10:38:35;;;;;;;10.23;6.17;;;12.10;90.60;;;;;;4993833;28;20797;-80
2024/02/18 10:41:04;;;;;;;10.13;6.33;;;12.10;15.00;;;;;;4992247;28;20209;-80
2024/02/18 10:43:33;;;;;;;10.30;6.07;;;12.10;1.00;;;;;;4994618;28;20304;-82
2024/02/18 10:46:03;;;;;;;10.00;5.40;;;12.10;18.90;;;;;;4995962;28;20206;-82
2024/02/18 10:48:36;;;;;;;11.60;6.00;;;12.10;1.00;;;;;;4996494;28;20601;-80
2024/02/18 10:51:05;;;;;;;11.63;6.07;;;12.10;1.00;;;;;;5002736;28;20626;-80
2024/02/18 10:53:35;;;;;;;10.57;5.43;;;12.20;1.00;;;;;;4991600;28;20209;-79
2024/02/18 10:56:07;;;;;;;10.60;5.63;;;12.20;1.00;;;;;;4993048;28;20213;-79
2024/02/18 10:58:48;;;;;;;10.43;5.03;;;12.20;1.00;;;;;;4992750;28;20312;-80
2024/02/18 11:01:18;;;;;;;8.80;5.43;;;12.30;1.00;;;;;;5000801;28;20208;-78
2024/02/18 11:03:51;;;;;;;7.03;4.87;;;12.20;1.00;;;;;;4994278;28;20292;-79
2024/02/18 11:06:18;;;;;;;8.07;5.73;;;12.20;1.00;;;;;;4997539;28;20687;-80
2024/02/18 11:08:46;;;;;;;10.03;6.00;;;12.30;1.00;;;;;;4999258;28;20231;-78
2024/02/18 11:11:14;;;;;;;11.37;5.70;;;12.30;1.00;;;;;;4983229;28;20552;-79
2024/02/18 11:13:41;;;;;;;11.70;6.17;;;12.20;1.00;;;;;;4995240;28;20209;-79
2024/02/18 11:16:10;;;;;;;11.13;6.13;;;12.20;1.00;;;;;;5004768;28;20612;-79
2024/02/18 11:18:38;;;;;;;9.57;5.93;;;12.10;1.00;;;;;;5010860;28;20213;-80
2024/02/18 11:21:07;;;;;;;10.57;6.77;;;12.20;1.00;;;;;;4999081;28;20681;-79
2024/02/18 11:23:34;;;;;;;8.70;6.00;;;12.20;1.00;;;;;;5003558;28;20204;-80
2024/02/18 11:26:01;;;;;;;13.50;7.03;;;12.20;99.90;;;;;;4995295;28;20654;-80
2024/02/18 11:28:28;;;;;;;13.50;7.80;;;12.20;99.90;;;;;;4997958;28;20252;-81
2024/02/18 11:30:55;;;;;;;14.67;7.80;;;12.10;99.90;;;;;;4990260;28;20217;-80
2024/02/18 11:33:22;;;;;;;10.40;6.57;;;12.10;99.90;;;;;;4993110;28;20209;-79
2024/02/18 11:36:12;;;;;;;15.00;8.03;;;12.00;99.90;;;;;;4993386;28;20201;-79
2024/02/18 11:38:44;;;;;;;13.03;7.17;;;12.00;1.00;;;;;;4996447;28;20221;-79
2024/02/18 11:41:17;;;;;;;14.00;7.80;;;12.00;1.00;;;;;;4992723;28;20256;-79
2024/02/18 11:43:44;;;;;;;12.13;7.63;;;12.00;1.00;;;;;;4988574;28;20238;-78
2024/02/18 11:46:19;;;;;;;14.87;8.77;;;12.00;1.00;;;;;;4989980;28;20612;-78
2024/02/18 11:48:46;;;;;;;14.50;8.60;;;12.00;1.00;;;;;;4989813;28;20229;-78
2024/02/18 11:51:16;;;;;;;15.70;8.63;;;12.00;99.90;;;;;;4993183;28;20201;-81
2024/02/18 11:53:43;;;;;;;15.57;8.43;;;11.90;1.00;;;;;;4988744;28;20288;-80
2024/02/18 11:56:10;;;;;;;14.13;8.67;;;11.90;99.90;;;;;;4989830;28;20295;-78
2024/02/18 11:58:37;;;;;;;13.80;7.63;;;11.90;99.90;;;;;;4991165;28;20232;-78
2024/02/18 12:01:06;;;;;;;12.00;7.77;;;11.80;99.90;;;;;;4996002;28;20640;-78
2024/02/18 12:03:33;;;;;;;14.07;8.07;;;11.70;1.00;;;;;;4995645;28;20205;-79
2024/02/18 12:06:01;;;;;;;11.73;7.83;;;11.70;1.00;;;;;;4995736;28;20407;-80
2024/02/18 12:08:29;;;;;;;12.50;7.80;;;11.60;99.90;;;;;;4992074;28;20260;-78
2024/02/18 12:10:59;;;;;;;14.10;7.80;;;11.70;1.00;;;;;;4985471;28;20202;-79
2024/02/18 12:13:25;;;;;;;13.27;7.47;;;11.60;1.00;;;;;;4990734;28;20280;-80
2024/02/18 12:15:53;;;;;;;13.40;7.63;;;11.50;1.00;;;;;;4994755;28;20682;-79
2024/02/18 12:18:20;;;;;;;13.13;7.83;;;11.50;99.90;;;;;;4994063;28;20214;-79
2024/02/18 12:20:49;;;;;;;13.17;8.20;;;11.40;99.90;;;;;;5000287;28;20220;-79
2024/02/18 12:23:16;;;;;;;14.83;8.17;;;11.40;99.90;;;;;;4992241;28;20217;-79
2024/02/18 12:25:44;;;;;;;13.47;8.37;;;11.40;1.00;;;;;;4997798;28;20208;-78
2024/02/18 12:28:12;;;;;;;14.23;9.10;;;11.40;1.00;;;;;;5000346;28;20233;-78
2024/02/18 12:30:38;;;;;;;13.50;8.07;;;11.30;1.00;;;;;;4993254;28;20298;-78
2024/02/18 12:33:06;;;;;;;14.43;8.70;;;11.30;1.00;;;;;;4993390;28;20209;-79
2024/02/18 12:35:34;;;;;;;15.60;8.77;;;11.30;1.00;;;;;;4994701;28;20205;-81
2024/02/18 12:38:02;;;;;;;14.20;8.93;;;11.30;93.10;;;;;;4997270;28;20213;-80
2024/02/18 12:40:29;;;;;;;17.73;10.00;;;11.30;99.90;;;;;;4991997;28;20213;-80
2024/02/18 12:42:58;;;;;;;17.30;9.97;;;11.30;99.90;;;;;;4988584;28;20206;-80